Weather History for Bremerton, WA

Change the Weather History Date:

Tuesday, May 28, 2013

  Actual Average Record
Temperature  
Mean Temperature 54 °F -  
Max Temperature 60 °F 63 °F 77 °F (2005)
Min Temperature 48 °F 44 °F 37 °F (2007)
Degree Days  
Heating Degree Days 11    
Growing Degree Days 4 (Base 50)    
Moisture  
Dew Point 47 °F    
Average Humidity 82    
Maximum Humidity 94    
Minimum Humidity 63    
Precipitation  
Precipitation 0.02 in - - ()
Sea Level Pressure  
Sea Level Pressure 29.87 in    
Wind  
Wind Speed 11 mph (SSW)    
Max Wind Speed 24 mph    
Max Gust Speed 29 mph    
Visibility 10 miles    
Events      
Averages and records for this station are not official NWS values.
T = Trace of Precipitation, MM = Missing Value Source: NWS Daily Summary

Daily Weather History Graph

Daily Weather History Graph

Search for Another Location

Airport:

Trip Planner

Search our weather history database for the weather conditions in past years. The results will help you decide how hot, cold, wet, or windy it might be!

Date:

Astronomy

May. 28, 2013 Rise Set
Actual Time 5:20 AM PDT 8:56 PM PDT
Civil Twilight 4:41 AM PDT 9:35 PM PDT
Nautical Twilight 3:50 AM PDT 10:27 PM PDT
Astronomical Twilight 2:39 AM PDT 11:39 PM PDT
Moon No Moon Rise 9:22 AM PDT (5/28)
Length of Visible Light 16h 53m
Length of Day
15h 36m
Waning Gibbous, 82% of the Moon is Illuminated
May 28
Waning Gibbous
May 31
Last Quarter
Jun 8
New
Jun 16
First Quarter
Jun 23
Full

Hourly Weather History & Observations

Time (PDT) Temp. Dew Point Humidity Pressure Visibility Wind Dir Wind Speed Gust Speed Precip Events Conditions
12:15 AM 51.8 °F 48.2 °F 88% 29.82 in 10.0 mi SSW 11.5 mph - N/A   Overcast
12:35 AM 51.8 °F 46.4 °F 82% 29.83 in 10.0 mi SSW 13.8 mph - N/A   Overcast
12:55 AM 51.8 °F 46.4 °F 82% 29.83 in 10.0 mi SSW 15.0 mph 19.6 mph N/A   Overcast
1:15 AM 51.8 °F 46.4 °F 82% 29.84 in 10.0 mi SSW 11.5 mph 19.6 mph N/A   Overcast
1:35 AM 50.0 °F 46.4 °F 87% 29.84 in 10.0 mi SSW 13.8 mph 17.3 mph N/A   Overcast
1:55 AM 50.0 °F 46.4 °F 87% 29.83 in 10.0 mi SSW 13.8 mph - N/A   Overcast
2:15 AM 50.0 °F 46.4 °F 87% 29.83 in 10.0 mi South 9.2 mph - N/A   Overcast
2:35 AM 50.0 °F 46.4 °F 87% 29.84 in 10.0 mi South 12.7 mph - N/A   Overcast
2:55 AM 50.0 °F 46.4 °F 87% 29.85 in 10.0 mi SSW 9.2 mph - N/A   Overcast
3:15 AM 50.0 °F 46.4 °F 87% 29.85 in 10.0 mi SSW 9.2 mph - N/A   Overcast
3:35 AM 48.2 °F 44.6 °F 87% 29.86 in 10.0 mi SSW 6.9 mph - N/A   Overcast
3:55 AM 48.2 °F 44.6 °F 87% 29.86 in 10.0 mi South 6.9 mph - N/A   Mostly Cloudy
4:15 AM 48.2 °F 46.4 °F 93% 29.86 in 10.0 mi South 6.9 mph - N/A   Overcast
4:35 AM 48.2 °F 46.4 °F 93% 29.86 in 10.0 mi South 6.9 mph - N/A   Overcast
4:55 AM 48.2 °F 46.4 °F 93% 29.86 in 7.0 mi SSW 8.1 mph - N/A   Overcast
5:15 AM 48.2 °F 46.4 °F 93% 29.86 in 10.0 mi South 5.8 mph - N/A   Overcast
5:35 AM 48.2 °F 46.4 °F 93% 29.86 in 10.0 mi South 9.2 mph - N/A   Overcast
5:55 AM 48.2 °F 46.4 °F 93% 29.87 in 10.0 mi South 8.1 mph - N/A   Overcast
6:15 AM 50.0 °F 46.4 °F 87% 29.87 in 10.0 mi South 9.2 mph - N/A   Overcast
6:35 AM 50.0 °F 46.4 °F 87% 29.87 in 10.0 mi South 8.1 mph - N/A   Overcast
6:55 AM 50.0 °F 48.2 °F 94% 29.88 in 10.0 mi South 10.4 mph - N/A   Overcast
7:15 AM 51.8 °F 48.2 °F 88% 29.88 in 10.0 mi South 10.4 mph - N/A   Overcast
7:35 AM 50.0 °F 46.4 °F 87% 29.89 in 10.0 mi South 8.1 mph - N/A   Overcast
7:55 AM 51.8 °F 46.4 °F 82% 29.89 in 10.0 mi South 10.4 mph - N/A   Overcast
8:15 AM 51.8 °F 48.2 °F 88% 29.89 in 10.0 mi South 6.9 mph - N/A   Mostly Cloudy
8:35 AM 51.8 °F 48.2 °F 88% 29.89 in 10.0 mi South 8.1 mph - N/A   Overcast
8:55 AM 51.8 °F 48.2 °F 88% 29.89 in 10.0 mi South 11.5 mph - N/A   Overcast
9:15 AM 51.8 °F 48.2 °F 88% 29.89 in 10.0 mi South 8.1 mph - N/A   Overcast
9:35 AM 51.8 °F 48.2 °F 88% 29.89 in 8.0 mi SSW 9.2 mph - N/A   Overcast
9:55 AM 51.8 °F 48.2 °F 88% 29.89 in 6.0 mi SSW 12.7 mph - 0.01 in   Overcast
10:15 AM 51.8 °F 50.0 °F 94% 29.90 in 10.0 mi South 9.2 mph - 0.01 in   Mostly Cloudy
10:35 AM 53.6 °F 48.2 °F 82% 29.90 in 10.0 mi SSW 11.5 mph - 0.01 in   Overcast
10:55 AM 53.6 °F 50.0 °F 88% 29.89 in 10.0 mi South 10.4 mph - 0.01 in   Overcast
11:15 AM 55.4 °F 50.0 °F 82% 29.91 in 10.0 mi South 15.0 mph 20.7 mph N/A   Overcast
11:35 AM 53.6 °F 48.2 °F 82% 29.91 in 10.0 mi South 8.1 mph - N/A   Overcast
11:55 AM 53.6 °F 48.2 °F 82% 29.91 in 10.0 mi SSW 11.5 mph - N/A   Overcast
12:15 PM 53.6 °F 48.2 °F 82% 29.91 in 10.0 mi South 9.2 mph - N/A   Overcast
12:35 PM 55.4 °F 48.2 °F 77% 29.90 in 10.0 mi South 9.2 mph - N/A   Overcast
12:55 PM 53.6 °F 48.2 °F 82% 29.92 in 10.0 mi SSW 15.0 mph - N/A   Overcast
1:15 PM 53.6 °F 46.4 °F 77% 29.91 in 10.0 mi SW 11.5 mph - N/A   Mostly Cloudy
1:35 PM 57.2 °F 50.0 °F 77% 29.92 in 10.0 mi SW 13.8 mph 20.7 mph N/A   Overcast
1:55 PM 55.4 °F 50.0 °F 82% 29.92 in 10.0 mi SSW 13.8 mph 23.0 mph N/A   Overcast
2:15 PM 55.4 °F 48.2 °F 77% 29.93 in 10.0 mi SSW 24.2 mph 28.8 mph N/A   Mostly Cloudy
2:35 PM 55.4 °F 51.8 °F 88% 29.91 in 10.0 mi SSW 16.1 mph 20.7 mph N/A   Mostly Cloudy
2:55 PM 59.0 °F 51.8 °F 77% 29.91 in 10.0 mi SSW 15.0 mph 20.7 mph N/A   Mostly Cloudy
3:15 PM 57.2 °F 48.2 °F 72% 29.91 in 10.0 mi SSW 19.6 mph 27.6 mph N/A   Overcast
3:35 PM 57.2 °F 48.2 °F 72% 29.91 in 10.0 mi SSW 18.4 mph 26.5 mph N/A   Overcast
3:55 PM 57.2 °F 48.2 °F 72% 29.91 in 10.0 mi SW 9.2 mph - N/A   Overcast
4:15 PM 60.8 °F 48.2 °F 63% 29.91 in 10.0 mi SW 19.6 mph 25.3 mph N/A   Mostly Cloudy
4:35 PM 57.2 °F 46.4 °F 67% 29.91 in 10.0 mi SW 12.7 mph 25.3 mph N/A   Mostly Cloudy
4:55 PM 57.2 °F 46.4 °F 67% 29.91 in 10.0 mi SSW 16.1 mph 24.2 mph N/A   Mostly Cloudy
5:15 PM 57.2 °F 46.4 °F 67% 29.91 in 10.0 mi SSW 21.9 mph 26.5 mph N/A   Scattered Clouds
5:35 PM 55.4 °F 46.4 °F 72% 29.90 in 10.0 mi SSW 13.8 mph - N/A   Scattered Clouds
5:55 PM 59.0 °F 46.4 °F 63% 29.89 in 10.0 mi SW 17.3 mph 24.2 mph N/A   Clear
6:15 PM 57.2 °F 44.6 °F 63% 29.88 in 10.0 mi SW 12.7 mph - N/A   Clear
6:35 PM 55.4 °F 44.6 °F 67% 29.87 in 10.0 mi SSW 19.6 mph 23.0 mph N/A   Partly Cloudy
6:55 PM 57.2 °F 44.6 °F 63% 29.88 in 10.0 mi SW 15.0 mph - N/A   Partly Cloudy
7:15 PM 55.4 °F 44.6 °F 67% 29.88 in 10.0 mi SSW 15.0 mph - N/A   Clear
7:35 PM 53.6 °F 44.6 °F 72% 29.86 in 10.0 mi SW 12.7 mph 16.1 mph N/A   Clear
7:55 PM 53.6 °F 44.6 °F 72% 29.87 in 10.0 mi SSW 12.7 mph 19.6 mph N/A   Clear
8:15 PM 51.8 °F 44.6 °F 76% 29.86 in 10.0 mi South 10.4 mph - N/A   Clear
8:35 PM 51.8 °F 44.6 °F 76% 29.84 in 10.0 mi SSW 10.4 mph - N/A   Scattered Clouds
8:55 PM 50.0 °F 44.6 °F 82% 29.84 in 10.0 mi South 6.9 mph - N/A   Overcast
9:15 PM 50.0 °F 44.6 °F 82% 29.84 in 10.0 mi South 6.9 mph - N/A   Mostly Cloudy
9:35 PM 48.2 °F 44.6 °F 87% 29.84 in 10.0 mi SSW 8.1 mph - N/A   Scattered Clouds
9:55 PM 50.0 °F 46.4 °F 87% 29.84 in 10.0 mi South 5.8 mph - N/A   Mostly Cloudy
10:15 PM 48.2 °F 44.6 °F 87% 29.82 in 10.0 mi South 3.5 mph - N/A   Partly Cloudy
10:35 PM 48.2 °F 44.6 °F 87% 29.81 in 10.0 mi SSE 4.6 mph - N/A   Scattered Clouds
10:55 PM 48.2 °F 44.6 °F 87% 29.82 in 10.0 mi SSE 5.8 mph - N/A   Mostly Cloudy
11:15 PM 48.2 °F 44.6 °F 87% 29.82 in 10.0 mi SSE 4.6 mph - N/A   Mostly Cloudy
11:35 PM 48.2 °F 44.6 °F 87% 29.80 in 10.0 mi Calm Calm - N/A   Mostly Cloudy
11:55 PM 48.2 °F 44.6 °F 87% 29.80 in 10.0 mi Calm Calm - N/A   Overcast